createdAt,value
2018-09-15T00:02:00.229Z,954.87
2018-09-15T00:04:28.056Z,966.70
2018-09-15T00:06:55.897Z,988.30
2018-09-15T00:09:23.757Z,980.03
2018-09-15T00:11:51.597Z,999.90
2018-09-15T00:14:19.429Z,994.97
2018-09-15T00:16:47.261Z,980.63
2018-09-15T00:19:15.089Z,939.70
2018-09-15T00:21:42.925Z,964.27
2018-09-15T00:24:10.773Z,974.03
2018-09-15T00:26:38.626Z,983.17
2018-09-15T00:29:06.461Z,988.20
2018-09-15T00:31:34.317Z,998.13
2018-09-15T00:34:02.149Z,998.83
2018-09-15T00:36:29.997Z,946.30
2018-09-15T00:38:57.907Z,923.17
2018-09-15T00:41:25.681Z,934.93
2018-09-15T00:43:53.525Z,973.13
2018-09-15T00:46:21.356Z,973.93
2018-09-15T00:48:49.201Z,997.97
2018-09-15T00:51:17.066Z,995.23
2018-09-15T00:53:44.902Z,999.90
2018-09-15T00:56:12.742Z,999.90
2018-09-15T00:58:40.573Z,981.90
2018-09-15T01:01:08.413Z,974.73
2018-09-15T01:03:36.245Z,986.33
2018-09-15T01:06:04.078Z,999.67
2018-09-15T01:08:32.002Z,998.00
2018-09-15T01:10:59.824Z,953.90
2018-09-15T01:13:27.660Z,967.37
2018-09-15T01:15:55.493Z,979.17
2018-09-15T01:18:23.333Z,980.27
2018-09-15T01:20:51.169Z,958.00
2018-09-15T01:23:19.020Z,971.83
2018-09-15T01:25:46.859Z,962.13
2018-09-15T01:28:14.700Z,977.00
2018-09-15T01:30:42.535Z,911.90
2018-09-15T01:33:10.373Z,967.40
2018-09-15T01:35:38.209Z,933.20
2018-09-15T01:38:06.041Z,931.77
2018-09-15T01:40:33.874Z,920.77
2018-09-15T01:43:01.707Z,923.10
2018-09-15T01:45:29.537Z,942.97
2018-09-15T01:47:57.388Z,915.93
2018-09-15T01:50:25.218Z,914.37
2018-09-15T01:52:53.057Z,904.53
2018-09-15T01:55:20.892Z,952.97
2018-09-15T01:57:48.721Z,935.33
2018-09-15T02:00:16.588Z,919.63
2018-09-15T02:02:44.430Z,890.30
2018-09-15T02:05:12.257Z,934.27
2018-09-15T02:07:40.102Z,897.30
2018-09-15T02:10:07.925Z,887.20
2018-09-15T02:12:35.856Z,912.70
2018-09-15T02:15:03.757Z,859.60
2018-09-15T02:17:31.581Z,889.77
2018-09-15T02:19:59.426Z,870.90
2018-09-15T02:22:27.312Z,856.30
2018-09-15T02:24:55.094Z,903.43
2018-09-15T02:27:22.921Z,906.37
2018-09-15T02:29:50.749Z,894.20
2018-09-15T02:32:18.581Z,895.07
2018-09-15T02:34:46.412Z,916.47
2018-09-15T02:37:14.233Z,894.13
2018-09-15T02:39:42.068Z,904.40
2018-09-15T02:42:09.885Z,904.37
2018-09-15T02:44:37.728Z,932.97
2018-09-15T02:47:05.550Z,950.13
2018-09-15T02:49:33.373Z,926.90
2018-09-15T02:52:01.198Z,963.53
2018-09-15T02:54:29.025Z,955.23
2018-09-15T02:56:56.849Z,974.83
2018-09-15T02:59:24.682Z,961.63
2018-09-15T03:01:52.506Z,980.27
2018-09-15T03:04:20.341Z,991.23
2018-09-15T03:06:48.231Z,982.87
2018-09-15T03:09:16.060Z,998.33
2018-09-15T03:11:43.892Z,970.57
2018-09-15T03:14:11.726Z,999.90
2018-09-15T03:16:39.650Z,999.90
2018-09-15T03:19:07.489Z,999.90
2018-09-15T03:21:35.309Z,999.90
2018-09-15T03:24:03.368Z,999.90
2018-09-15T03:26:31.461Z,999.90
2018-09-15T03:28:59.303Z,999.90
2018-09-15T03:31:27.122Z,999.90
2018-09-15T03:33:54.953Z,999.90
2018-09-15T03:36:22.774Z,999.90
2018-09-15T03:38:50.605Z,999.90
2018-09-15T03:41:18.428Z,999.90
2018-09-15T03:43:46.253Z,999.90
2018-09-15T03:46:14.090Z,999.90
2018-09-15T03:48:41.917Z,999.90
2018-09-15T03:51:09.741Z,999.90
2018-09-15T03:53:37.585Z,999.90
2018-09-15T03:56:05.415Z,999.90
2018-09-15T03:58:33.242Z,999.90
2018-09-15T04:01:01.133Z,999.90
2018-09-15T04:03:28.960Z,999.90
2018-09-15T04:05:56.790Z,999.90
2018-09-15T04:08:24.609Z,999.90
2018-09-15T04:10:52.442Z,999.90
2018-09-15T04:13:20.268Z,999.90
2018-09-15T04:15:48.098Z,999.90
2018-09-15T04:18:16.869Z,999.90
2018-09-15T04:20:46.716Z,999.90
2018-09-15T04:23:15.105Z,999.90
2018-09-15T04:25:43.521Z,999.90
2018-09-15T04:28:11.421Z,999.90
2018-09-15T04:30:39.512Z,999.90
2018-09-15T04:33:07.409Z,999.90
2018-09-15T04:35:35.278Z,999.90
2018-09-15T04:38:03.142Z,999.90
2018-09-15T04:40:31.885Z,999.90
2018-09-15T04:43:00.094Z,999.90
2018-09-15T04:45:27.929Z,999.90
2018-09-15T04:47:55.762Z,999.90
2018-09-15T04:50:23.621Z,999.90
2018-09-15T04:52:51.661Z,999.90
2018-09-15T04:55:19.498Z,999.90
2018-09-15T04:57:47.325Z,999.90
2018-09-15T05:00:15.160Z,999.90
2018-09-15T05:02:42.986Z,999.90
2018-09-15T05:05:10.824Z,999.90
2018-09-15T05:07:38.649Z,999.90
2018-09-15T05:10:06.492Z,999.90
2018-09-15T05:12:34.341Z,999.90
2018-09-15T05:15:02.155Z,999.90
2018-09-15T05:17:30.014Z,999.90
2018-09-15T05:19:57.849Z,999.90
2018-09-15T05:22:25.678Z,999.90
2018-09-15T05:24:53.513Z,999.90
2018-09-15T05:27:21.341Z,999.90
2018-09-15T05:29:49.201Z,999.90
2018-09-15T05:32:17.035Z,999.90
2018-09-15T05:34:44.857Z,999.90
2018-09-15T05:37:12.684Z,999.90
2018-09-15T05:39:40.522Z,999.90
2018-09-15T05:42:08.345Z,999.90
2018-09-15T05:44:36.177Z,999.90
2018-09-15T05:47:04.013Z,999.90
2018-09-15T05:49:31.854Z,999.90
2018-09-15T05:51:59.741Z,999.90
2018-09-15T05:54:27.569Z,999.90
2018-09-15T05:56:55.408Z,999.90
2018-09-15T05:59:23.241Z,999.90
2018-09-15T06:01:51.132Z,999.90
2018-09-15T06:04:18.945Z,999.90
2018-09-15T06:06:46.858Z,999.90
2018-09-15T06:09:14.625Z,999.90
2018-09-15T06:11:42.760Z,999.90
2018-09-15T06:14:10.592Z,999.90
2018-09-15T06:16:38.430Z,999.90
2018-09-15T06:19:06.258Z,999.90
2018-09-15T06:21:34.093Z,999.90
2018-09-15T06:24:02.029Z,999.90
2018-09-15T06:26:30.552Z,999.90
2018-09-15T06:28:58.561Z,999.90
2018-09-15T06:31:26.389Z,999.90
2018-09-15T06:33:54.300Z,999.90
2018-09-15T06:36:22.201Z,999.90
2018-09-15T06:38:49.993Z,999.90
2018-09-15T06:41:17.826Z,999.90
2018-09-15T06:43:45.649Z,999.90
2018-09-15T06:46:13.517Z,999.90
2018-09-15T06:48:41.351Z,999.90
2018-09-15T06:51:09.266Z,999.90
2018-09-15T06:53:37.141Z,999.90
2018-09-15T06:56:04.916Z,999.90
2018-09-15T06:58:32.740Z,999.90
2018-09-15T07:01:00.618Z,999.90
2018-09-15T07:03:28.429Z,999.90
2018-09-15T07:05:56.265Z,999.90
2018-09-15T07:08:24.093Z,999.90
2018-09-15T07:10:52.018Z,999.90
2018-09-15T07:13:19.846Z,999.90
2018-09-15T07:15:49.815Z,999.90
2018-09-15T07:18:17.634Z,999.90
2018-09-15T07:20:45.816Z,999.90
2018-09-15T07:23:13.658Z,999.90
2018-09-15T07:25:41.477Z,999.90
2018-09-15T07:28:09.312Z,999.90
2018-09-15T07:30:37.137Z,999.90
2018-09-15T07:33:05.017Z,999.90
2018-09-15T07:35:32.849Z,999.90
2018-09-15T07:38:00.689Z,999.90
2018-09-15T07:40:28.649Z,999.90
2018-09-15T07:42:56.486Z,999.90
2018-09-15T07:45:24.296Z,999.90
2018-09-15T07:47:52.125Z,999.90
2018-09-15T07:50:19.945Z,999.90
2018-09-15T07:52:48.126Z,999.90
2018-09-15T07:55:15.982Z,999.90
2018-09-15T07:57:43.848Z,999.90
2018-09-15T08:00:11.645Z,999.90
2018-09-15T08:02:39.477Z,999.90
2018-09-15T08:05:07.305Z,999.90
2018-09-15T08:07:35.499Z,999.90
2018-09-15T08:10:03.361Z,999.90
2018-09-15T08:12:31.217Z,999.90
2018-09-15T08:14:59.061Z,999.90
2018-09-15T08:17:26.897Z,999.90
2018-09-15T08:19:54.717Z,999.90
2018-09-15T08:22:22.596Z,999.90
2018-09-15T08:24:50.489Z,999.90
2018-09-15T08:27:18.325Z,999.90
2018-09-15T08:29:46.152Z,999.90
2018-09-15T08:32:14.219Z,999.90
2018-09-15T08:34:42.041Z,999.90
2018-09-15T08:37:09.871Z,999.90
2018-09-15T08:39:37.954Z,999.90
2018-09-15T08:42:05.989Z,999.90
2018-09-15T08:44:33.810Z,999.90
2018-09-15T08:47:01.668Z,999.90
2018-09-15T08:49:29.494Z,999.90
2018-09-15T08:51:57.327Z,999.90
2018-09-15T08:54:25.212Z,999.90
2018-09-15T08:56:53.123Z,999.90
2018-09-15T08:59:20.955Z,999.90
2018-09-15T09:01:48.892Z,999.90
2018-09-15T09:04:16.721Z,999.90
2018-09-15T09:06:44.544Z,999.90
2018-09-15T09:09:13.065Z,999.90
2018-09-15T09:11:40.900Z,999.90
2018-09-15T09:14:08.737Z,999.90
2018-09-15T09:16:36.595Z,999.90
2018-09-15T09:19:04.492Z,999.90
2018-09-15T09:21:32.304Z,999.90
2018-09-15T09:24:00.172Z,999.90
2018-09-15T09:26:28.171Z,999.90
2018-09-15T09:28:55.922Z,999.90
2018-09-15T09:31:30.219Z,999.90
2018-09-15T09:34:00.961Z,999.90
2018-09-15T09:36:28.828Z,999.90
2018-09-15T09:38:56.725Z,999.90
2018-09-15T09:41:24.584Z,999.90
2018-09-15T09:43:52.393Z,999.90
2018-09-15T09:46:20.229Z,999.90
2018-09-15T09:48:48.076Z,999.90
2018-09-15T09:51:15.905Z,999.90
2018-09-15T09:53:51.192Z,999.90
2018-09-15T09:56:25.890Z,999.90
2018-09-15T09:59:04.340Z,999.90
2018-09-15T10:01:42.906Z,999.90
2018-09-15T10:04:11.299Z,999.90
2018-09-15T10:06:39.129Z,999.90
2018-09-15T10:09:08.493Z,999.90
2018-09-15T10:11:36.426Z,999.90
2018-09-15T10:14:04.294Z,999.90
2018-09-15T10:16:32.128Z,999.90
2018-09-15T10:19:00.001Z,999.90
2018-09-15T10:21:27.869Z,999.90
2018-09-15T10:23:55.770Z,999.90
2018-09-15T10:26:23.623Z,999.90
2018-09-15T10:28:51.489Z,999.90
2018-09-15T10:31:21.666Z,999.90
2018-09-15T10:33:49.911Z,999.90
2018-09-15T10:36:18.686Z,999.90
2018-09-15T10:38:46.524Z,999.90
2018-09-15T10:41:14.353Z,999.90
2018-09-15T10:43:44.148Z,999.90
2018-09-15T10:46:11.977Z,999.90
2018-09-15T10:48:39.815Z,999.90
2018-09-15T10:51:07.642Z,783.67
2018-09-15T10:53:35.474Z,999.90
2018-09-15T10:56:03.305Z,951.87
2018-09-15T10:58:31.152Z,999.90
2018-09-15T11:00:58.986Z,999.90
2018-09-15T11:03:26.817Z,999.90
2018-09-15T11:05:54.708Z,999.90
2018-09-15T11:08:22.485Z,999.90
2018-09-15T11:10:50.377Z,983.13
2018-09-15T11:13:18.367Z,999.90
2018-09-15T11:15:51.752Z,813.33
2018-09-15T11:18:19.679Z,999.90
2018-09-15T11:20:47.505Z,999.90
2018-09-15T11:23:15.325Z,999.90
2018-09-15T11:25:43.169Z,975.70
2018-09-15T11:28:11.058Z,993.00
2018-09-15T11:30:38.949Z,999.90
2018-09-15T11:33:06.981Z,999.90
2018-09-15T11:35:34.817Z,999.90
2018-09-15T11:38:02.669Z,999.90
2018-09-15T11:40:30.505Z,999.90
2018-09-15T11:42:58.338Z,999.90
2018-09-15T11:45:26.173Z,999.90
2018-09-15T11:47:54.068Z,999.90
2018-09-15T11:50:21.842Z,999.90
2018-09-15T11:52:49.673Z,831.30
2018-09-15T11:55:17.762Z,793.97
2018-09-15T11:57:45.589Z,690.67
2018-09-15T12:00:14.208Z,711.43
2018-09-15T12:02:42.049Z,822.40
2018-09-15T12:05:09.961Z,679.83
2018-09-15T12:07:37.895Z,999.90
2018-09-15T12:10:05.681Z,999.90
2018-09-15T12:12:33.513Z,976.53
2018-09-15T12:15:01.345Z,999.90
2018-09-15T12:17:29.173Z,999.90
2018-09-15T12:19:57.011Z,999.90
2018-09-15T12:22:24.887Z,999.90
2018-09-15T12:24:52.726Z,999.90
2018-09-15T12:27:20.548Z,999.90
2018-09-15T12:29:48.377Z,999.90
2018-09-15T12:32:16.248Z,999.90
2018-09-15T12:34:44.153Z,999.90
2018-09-15T12:37:12.029Z,999.90
2018-09-15T12:39:39.862Z,397.07
2018-09-15T12:42:07.713Z,757.93
2018-09-15T12:44:35.606Z,610.80
2018-09-15T12:47:03.493Z,558.13
2018-09-15T12:49:31.385Z,704.43
2018-09-15T12:51:59.294Z,941.30
2018-09-15T12:54:27.083Z,957.37
2018-09-15T12:56:54.911Z,949.03
2018-09-15T12:59:22.766Z,999.90
2018-09-15T13:01:50.578Z,999.90
2018-09-15T13:04:18.409Z,999.90
2018-09-15T13:06:46.244Z,999.90
2018-09-15T13:09:14.114Z,999.90
2018-09-15T13:11:41.945Z,999.90
2018-09-15T13:14:09.789Z,999.90
2018-09-15T13:16:37.890Z,999.90
2018-09-15T13:19:05.721Z,999.90
2018-09-15T13:21:33.565Z,999.90
2018-09-15T13:24:01.394Z,999.90
2018-09-15T13:26:29.242Z,999.90
2018-09-15T13:28:57.433Z,999.90
2018-09-15T13:31:25.269Z,999.90
2018-09-15T13:33:53.096Z,999.90
2018-09-15T13:36:20.921Z,999.90
2018-09-15T13:38:48.741Z,999.90
2018-09-15T13:41:16.613Z,999.90
2018-09-15T13:43:44.399Z,999.90
2018-09-15T13:46:12.230Z,999.90
2018-09-15T13:48:40.074Z,999.90
2018-09-15T13:51:07.977Z,999.90
2018-09-15T13:53:35.798Z,999.90
2018-09-15T13:56:03.624Z,999.90
2018-09-15T13:58:31.488Z,999.90
2018-09-15T14:00:59.326Z,999.90
2018-09-15T14:03:27.154Z,999.90
2018-09-15T14:05:54.989Z,999.90
2018-09-15T14:08:22.817Z,999.90
2018-09-15T14:10:50.702Z,692.27
2018-09-15T14:13:18.486Z,999.90
2018-09-15T14:15:46.313Z,996.03
2018-09-15T14:18:14.137Z,924.10
2018-09-15T14:20:41.961Z,999.90
2018-09-15T14:23:09.822Z,999.90
2018-09-15T14:25:37.655Z,999.90
2018-09-15T14:28:05.486Z,994.50
2018-09-15T14:30:33.331Z,999.90
2018-09-15T14:33:01.153Z,999.90
2018-09-15T14:35:28.984Z,872.00
2018-09-15T14:37:57.106Z,999.90
2018-09-15T14:40:24.965Z,999.90
2018-09-15T14:42:52.797Z,904.37
2018-09-15T14:45:20.644Z,997.70
2018-09-15T14:47:48.486Z,999.90
2018-09-15T14:50:16.354Z,935.90
2018-09-15T14:52:44.202Z,999.90
2018-09-15T14:55:12.115Z,934.63
2018-09-15T14:57:39.959Z,999.90
2018-09-15T15:00:08.341Z,999.90
2018-09-15T15:02:36.182Z,976.63
2018-09-15T15:05:04.017Z,999.90
2018-09-15T15:07:31.905Z,999.20
2018-09-15T15:09:59.701Z,999.90
2018-09-15T15:12:27.541Z,999.90
2018-09-15T15:14:55.366Z,999.90
2018-09-15T15:17:23.201Z,999.90
2018-09-15T15:19:51.027Z,999.90
2018-09-15T15:22:18.865Z,999.90
2018-09-15T15:24:46.697Z,999.90
2018-09-15T15:27:14.529Z,999.90
2018-09-15T15:29:42.445Z,999.90
2018-09-15T15:32:10.337Z,999.90
2018-09-15T15:34:38.264Z,999.90
2018-09-15T15:37:06.073Z,999.90
2018-09-15T15:39:33.893Z,999.90
2018-09-15T15:42:01.911Z,999.90
2018-09-15T15:44:29.733Z,999.90
2018-09-15T15:46:57.561Z,999.90
2018-09-15T15:49:25.472Z,999.90
2018-09-15T15:51:53.304Z,999.90
2018-09-15T15:54:21.150Z,999.90
2018-09-15T15:56:49.010Z,999.90
2018-09-15T15:59:16.929Z,999.90
2018-09-15T16:01:44.683Z,999.90
2018-09-15T16:04:12.517Z,999.90
2018-09-15T16:06:40.354Z,999.90
2018-09-15T16:09:08.174Z,999.90
2018-09-15T16:11:36.677Z,999.90
2018-09-15T16:14:04.481Z,999.90
2018-09-15T16:16:32.356Z,999.90
2018-09-15T16:19:00.157Z,999.90
2018-09-15T16:21:28.021Z,999.90
2018-09-15T16:23:55.854Z,999.90
2018-09-15T16:26:23.692Z,999.90
2018-09-15T16:28:51.625Z,999.90
2018-09-15T16:31:19.461Z,999.90
2018-09-15T16:33:47.293Z,999.90
2018-09-15T16:36:15.126Z,999.90
2018-09-15T16:38:42.962Z,999.90
2018-09-15T16:41:10.781Z,999.90
2018-09-15T16:43:38.629Z,999.90
2018-09-15T16:46:06.477Z,999.90
2018-09-15T16:48:34.305Z,999.90
2018-09-15T16:51:02.133Z,999.90
2018-09-15T16:53:29.970Z,999.90
2018-09-15T16:55:57.813Z,999.90
2018-09-15T16:58:25.652Z,999.90
2018-09-15T17:00:53.480Z,999.90
2018-09-15T17:03:21.362Z,999.90
2018-09-15T17:05:49.204Z,999.90
2018-09-15T17:08:17.097Z,999.90
2018-09-15T17:10:44.922Z,999.90
2018-09-15T17:13:12.751Z,999.90
2018-09-15T17:15:40.577Z,999.90
2018-09-15T17:18:08.412Z,999.90
2018-09-15T17:20:36.249Z,999.90
2018-09-15T17:23:04.077Z,999.90
2018-09-15T17:25:31.958Z,999.90
2018-09-15T17:27:59.785Z,999.90
2018-09-15T17:30:27.613Z,999.90
2018-09-15T17:32:55.441Z,999.90
2018-09-15T17:35:23.262Z,999.90
2018-09-15T17:37:51.089Z,999.90
2018-09-15T17:40:18.906Z,999.90
2018-09-15T17:42:46.759Z,999.90
2018-09-15T17:45:14.834Z,999.90
2018-09-15T17:47:43.353Z,999.90
2018-09-15T17:50:11.551Z,999.90
2018-09-15T17:52:39.633Z,999.90
2018-09-15T17:55:07.912Z,999.90
2018-09-15T17:57:35.863Z,999.90
2018-09-15T18:00:04.180Z,999.90
2018-09-15T18:02:32.185Z,999.90
2018-09-15T18:05:01.149Z,999.90
2018-09-15T18:07:29.114Z,999.90
2018-09-15T18:09:57.180Z,999.90
2018-09-15T18:12:25.366Z,999.90
2018-09-15T18:14:53.193Z,999.90
2018-09-15T18:17:21.129Z,999.90
2018-09-15T18:19:48.956Z,999.90
2018-09-15T18:22:16.771Z,999.90
2018-09-15T18:24:44.625Z,999.90
2018-09-15T18:27:12.449Z,999.90
2018-09-15T18:29:40.281Z,999.90
2018-09-15T18:32:08.105Z,999.90
2018-09-15T18:34:35.941Z,999.90
2018-09-15T18:37:03.779Z,999.90
2018-09-15T18:39:31.986Z,999.90
2018-09-15T18:41:59.813Z,999.90
2018-09-15T18:44:27.654Z,999.90
2018-09-15T18:46:55.514Z,999.90
2018-09-15T18:49:23.395Z,999.90
2018-09-15T18:51:51.354Z,999.90
2018-09-15T18:54:19.186Z,999.90
2018-09-15T18:56:47.021Z,999.90
2018-09-15T18:59:14.853Z,999.90
2018-09-15T19:01:42.778Z,999.90
2018-09-15T19:04:10.616Z,999.90
2018-09-15T19:06:38.456Z,999.90
2018-09-15T19:09:07.329Z,999.90
2018-09-15T19:11:35.185Z,999.90
2018-09-15T19:14:03.044Z,999.90
2018-09-15T19:16:30.905Z,999.90
2018-09-15T19:18:58.774Z,999.90
2018-09-15T19:21:26.643Z,999.90
2018-09-15T19:23:54.497Z,999.90
2018-09-15T19:26:22.379Z,999.90
2018-09-15T19:28:50.183Z,999.90
2018-09-15T19:31:18.031Z,999.90
2018-09-15T19:33:45.873Z,999.90
2018-09-15T19:36:13.788Z,999.90
2018-09-15T19:38:41.739Z,999.90
2018-09-15T19:41:09.796Z,999.90
2018-09-15T19:43:37.672Z,999.90
2018-09-15T19:46:05.830Z,999.90
2018-09-15T19:48:33.687Z,999.90
2018-09-15T19:51:01.539Z,999.90
2018-09-15T19:53:29.391Z,999.90
2018-09-15T19:55:57.251Z,999.90
2018-09-15T19:58:25.066Z,999.90
2018-09-15T20:00:52.896Z,999.90
2018-09-15T20:03:20.745Z,999.90
2018-09-15T20:05:48.589Z,999.90
2018-09-15T20:08:16.401Z,999.90
2018-09-15T20:10:44.746Z,999.90
2018-09-15T20:13:12.847Z,999.90
2018-09-15T20:15:40.401Z,999.90
2018-09-15T20:18:07.944Z,999.90
2018-09-15T20:20:35.359Z,999.90
2018-09-15T20:23:03.202Z,999.90
2018-09-15T20:25:31.045Z,999.90
2018-09-15T20:27:58.890Z,999.90
2018-09-15T20:30:26.754Z,999.90
2018-09-15T20:32:54.631Z,999.90
2018-09-15T20:35:22.425Z,999.90
2018-09-15T20:37:50.253Z,999.90
2018-09-15T20:40:18.139Z,999.90
2018-09-15T20:42:45.987Z,999.90
2018-09-15T20:45:13.822Z,999.90
2018-09-15T20:47:41.645Z,999.90
2018-09-15T20:50:09.590Z,999.90
2018-09-15T20:52:37.429Z,999.90
2018-09-15T20:55:05.638Z,999.90
2018-09-15T20:57:33.546Z,999.90
2018-09-15T21:00:01.385Z,999.90
2018-09-15T21:02:29.206Z,999.90
2018-09-15T21:04:57.045Z,999.90
2018-09-15T21:07:24.873Z,999.90
2018-09-15T21:09:52.713Z,999.90
2018-09-15T21:12:20.533Z,999.90
2018-09-15T21:14:48.386Z,999.90
2018-09-15T21:17:17.236Z,999.90
2018-09-15T21:19:45.078Z,999.90
2018-09-15T21:22:12.901Z,999.90
2018-09-15T21:24:40.750Z,999.90
2018-09-15T21:27:08.597Z,999.90
2018-09-15T21:29:36.492Z,999.90
2018-09-15T21:32:04.337Z,999.90
2018-09-15T21:34:32.180Z,999.90
2018-09-15T21:37:00.533Z,999.90
2018-09-15T21:39:28.353Z,999.90
2018-09-15T21:41:56.193Z,999.90
2018-09-15T21:44:24.026Z,999.90
2018-09-15T21:46:51.874Z,999.90
2018-09-15T21:49:19.757Z,999.90
2018-09-15T21:51:47.586Z,999.90
2018-09-15T21:54:15.692Z,999.90
2018-09-15T21:56:43.581Z,999.90
2018-09-15T21:59:12.204Z,999.90
2018-09-15T22:01:40.079Z,999.90
2018-09-15T22:04:13.542Z,999.90
2018-09-15T22:06:41.374Z,999.90
2018-09-15T22:09:10.493Z,999.90
2018-09-15T22:11:38.342Z,999.90
2018-09-15T22:14:06.171Z,999.90
2018-09-15T22:16:34.016Z,999.90
2018-09-15T22:19:01.878Z,999.90
2018-09-15T22:21:29.769Z,999.90
2018-09-15T22:23:57.619Z,999.90
2018-09-15T22:26:30.387Z,999.90
2018-09-15T22:29:02.819Z,999.90
2018-09-15T22:31:34.541Z,999.90
2018-09-15T22:34:02.446Z,999.90
2018-09-15T22:36:30.362Z,999.90
2018-09-15T22:39:01.185Z,999.90
2018-09-15T22:41:29.033Z,999.90
2018-09-15T22:43:56.977Z,999.90
2018-09-15T22:46:25.061Z,999.90
2018-09-15T22:48:53.621Z,999.90
2018-09-15T22:51:21.529Z,999.90
2018-09-15T22:53:49.360Z,999.90
2018-09-15T22:56:17.221Z,999.90
2018-09-15T22:58:45.057Z,999.90
2018-09-15T23:01:12.894Z,999.90
2018-09-15T23:03:40.825Z,999.90
2018-09-15T23:06:08.669Z,999.90
2018-09-15T23:08:36.502Z,999.90
2018-09-15T23:11:04.451Z,999.90
2018-09-15T23:13:32.283Z,999.90
2018-09-15T23:16:00.138Z,999.90
2018-09-15T23:18:27.973Z,999.90
2018-09-15T23:20:55.886Z,999.90
2018-09-15T23:23:23.837Z,999.90
2018-09-15T23:25:51.669Z,999.90
2018-09-15T23:28:19.564Z,999.90
2018-09-15T23:30:47.390Z,999.90
2018-09-15T23:33:15.225Z,999.90
2018-09-15T23:35:43.054Z,999.90
2018-09-15T23:38:10.889Z,999.90
2018-09-15T23:40:38.725Z,999.90
2018-09-15T23:43:06.574Z,999.90
2018-09-15T23:45:34.403Z,999.90
2018-09-15T23:48:02.249Z,999.90
2018-09-15T23:50:33.761Z,999.90
2018-09-15T23:53:08.398Z,999.90
2018-09-15T23:55:36.737Z,999.90
2018-09-15T23:58:04.768Z,999.90
